sensor_id;sensor_type;location;lat;lon;timestamp;P1;durP1;ratioP1;P2;durP2;ratioP2
30173;SDS011;16985;50.814;8.530;2022-07-06T00:02:07;6.68;;;2.20;;
30173;SDS011;16985;50.814;8.530;2022-07-06T00:04:49;2.85;;;1.65;;
30173;SDS011;16985;50.814;8.530;2022-07-06T00:07:18;5.47;;;2.05;;
30173;SDS011;16985;50.814;8.530;2022-07-06T00:09:47;3.67;;;1.40;;
30173;SDS011;16985;50.814;8.530;2022-07-06T00:12:13;5.00;;;1.92;;
30173;SDS011;16985;50.814;8.530;2022-07-06T00:14:42;2.20;;;1.42;;
30173;SDS011;16985;50.814;8.530;2022-07-06T00:17:17;3.40;;;1.67;;
30173;SDS011;16985;50.814;8.530;2022-07-06T00:19:48;3.72;;;1.70;;
30173;SDS011;16985;50.814;8.530;2022-07-06T00:22:14;3.88;;;1.52;;
30173;SDS011;16985;50.814;8.530;2022-07-06T00:24:47;5.50;;;1.60;;
30173;SDS011;16985;50.814;8.530;2022-07-06T00:27:13;3.92;;;2.00;;
30173;SDS011;16985;50.814;8.530;2022-07-06T00:29:41;3.03;;;2.17;;
30173;SDS011;16985;50.814;8.530;2022-07-06T00:32:09;2.40;;;1.80;;
30173;SDS011;16985;50.814;8.530;2022-07-06T00:34:41;4.78;;;1.90;;
30173;SDS011;16985;50.814;8.530;2022-07-06T00:37:10;4.80;;;1.85;;
30173;SDS011;16985;50.814;8.530;2022-07-06T00:39:40;2.47;;;1.73;;
30173;SDS011;16985;50.814;8.530;2022-07-06T00:42:15;2.53;;;2.03;;
30173;SDS011;16985;50.814;8.530;2022-07-06T00:44:41;3.60;;;1.45;;
30173;SDS011;16985;50.814;8.530;2022-07-06T00:47:10;4.15;;;1.77;;
30173;SDS011;16985;50.814;8.530;2022-07-06T00:49:36;3.42;;;1.60;;
30173;SDS011;16985;50.814;8.530;2022-07-06T00:52:23;3.75;;;1.42;;
30173;SDS011;16985;50.814;8.530;2022-07-06T00:54:49;2.65;;;1.73;;
30173;SDS011;16985;50.814;8.530;2022-07-06T00:57:17;3.67;;;1.65;;
30173;SDS011;16985;50.814;8.530;2022-07-06T00:59:52;2.75;;;1.88;;
30173;SDS011;16985;50.814;8.530;2022-07-06T01:02:19;4.55;;;1.50;;
30173;SDS011;16985;50.814;8.530;2022-07-06T01:04:48;2.33;;;1.45;;
30173;SDS011;16985;50.814;8.530;2022-07-06T01:07:14;3.10;;;1.90;;
30173;SDS011;16985;50.814;8.530;2022-07-06T01:09:39;2.97;;;1.50;;
30173;SDS011;16985;50.814;8.530;2022-07-06T01:12:27;2.55;;;1.55;;
30173;SDS011;16985;50.814;8.530;2022-07-06T01:14:52;1.98;;;1.60;;
30173;SDS011;16985;50.814;8.530;2022-07-06T01:17:18;2.00;;;1.55;;
30173;SDS011;16985;50.814;8.530;2022-07-06T01:19:48;4.55;;;2.40;;
30173;SDS011;16985;50.814;8.530;2022-07-06T01:22:13;6.55;;;2.10;;
30173;SDS011;16985;50.814;8.530;2022-07-06T01:24:39;2.85;;;2.05;;
30173;SDS011;16985;50.814;8.530;2022-07-06T01:27:05;4.07;;;1.60;;
30173;SDS011;16985;50.814;8.530;2022-07-06T01:29:32;2.55;;;1.60;;
30173;SDS011;16985;50.814;8.530;2022-07-06T01:31:59;3.25;;;1.73;;
30173;SDS011;16985;50.814;8.530;2022-07-06T01:34:25;6.38;;;1.88;;
30173;SDS011;16985;50.814;8.530;2022-07-06T01:36:51;3.00;;;1.80;;
30173;SDS011;16985;50.814;8.530;2022-07-06T01:39:18;4.68;;;2.03;;
30173;SDS011;16985;50.814;8.530;2022-07-06T01:41:44;2.50;;;1.55;;
30173;SDS011;16985;50.814;8.530;2022-07-06T01:44:10;5.32;;;2.60;;
30173;SDS011;16985;50.814;8.530;2022-07-06T01:46:37;4.03;;;1.48;;
30173;SDS011;16985;50.814;8.530;2022-07-06T01:49:05;4.88;;;2.92;;
30173;SDS011;16985;50.814;8.530;2022-07-06T01:51:32;6.72;;;2.00;;
30173;SDS011;16985;50.814;8.530;2022-07-06T01:53:58;2.45;;;1.85;;
30173;SDS011;16985;50.814;8.530;2022-07-06T01:56:25;4.88;;;1.98;;
30173;SDS011;16985;50.814;8.530;2022-07-06T01:58:55;4.80;;;2.00;;
30173;SDS011;16985;50.814;8.530;2022-07-06T02:01:22;2.28;;;1.58;;
30173;SDS011;16985;50.814;8.530;2022-07-06T02:03:48;1.67;;;1.50;;
30173;SDS011;16985;50.814;8.530;2022-07-06T02:06:15;2.88;;;1.70;;
30173;SDS011;16985;50.814;8.530;2022-07-06T02:08:42;2.47;;;1.60;;
30173;SDS011;16985;50.814;8.530;2022-07-06T02:11:08;5.00;;;2.72;;
30173;SDS011;16985;50.814;8.530;2022-07-06T02:13:37;1.60;;;1.40;;
30173;SDS011;16985;50.814;8.530;2022-07-06T02:16:09;4.80;;;2.10;;
30173;SDS011;16985;50.814;8.530;2022-07-06T02:18:35;5.22;;;1.80;;
30173;SDS011;16985;50.814;8.530;2022-07-06T02:21:02;3.05;;;1.80;;
30173;SDS011;16985;50.814;8.530;2022-07-06T02:23:29;2.15;;;1.45;;
30173;SDS011;16985;50.814;8.530;2022-07-06T02:25:56;5.72;;;1.88;;
30173;SDS011;16985;50.814;8.530;2022-07-06T02:28:23;2.50;;;1.50;;
30173;SDS011;16985;50.814;8.530;2022-07-06T02:30:50;2.00;;;1.60;;
30173;SDS011;16985;50.814;8.530;2022-07-06T02:33:16;2.55;;;1.40;;
30173;SDS011;16985;50.814;8.530;2022-07-06T02:35:42;3.80;;;1.80;;
30173;SDS011;16985;50.814;8.530;2022-07-06T02:38:09;7.43;;;1.70;;
30173;SDS011;16985;50.814;8.530;2022-07-06T02:40:36;3.30;;;1.75;;
30173;SDS011;16985;50.814;8.530;2022-07-06T02:43:02;3.30;;;1.70;;
30173;SDS011;16985;50.814;8.530;2022-07-06T02:45:28;6.90;;;1.63;;
30173;SDS011;16985;50.814;8.530;2022-07-06T02:47:55;6.20;;;1.83;;
30173;SDS011;16985;50.814;8.530;2022-07-06T02:50:23;4.28;;;1.98;;
30173;SDS011;16985;50.814;8.530;2022-07-06T02:52:52;4.97;;;1.63;;
30173;SDS011;16985;50.814;8.530;2022-07-06T02:55:19;3.55;;;1.60;;
30173;SDS011;16985;50.814;8.530;2022-07-06T02:57:45;4.00;;;1.88;;
30173;SDS011;16985;50.814;8.530;2022-07-06T03:00:12;4.70;;;2.13;;
30173;SDS011;16985;50.814;8.530;2022-07-06T03:02:39;3.38;;;1.50;;
30173;SDS011;16985;50.814;8.530;2022-07-06T03:05:06;5.53;;;1.52;;
30173;SDS011;16985;50.814;8.530;2022-07-06T03:07:32;6.93;;;2.17;;
30173;SDS011;16985;50.814;8.530;2022-07-06T03:09:58;2.75;;;1.48;;
30173;SDS011;16985;50.814;8.530;2022-07-06T03:12:25;4.65;;;1.33;;
30173;SDS011;16985;50.814;8.530;2022-07-06T03:14:51;3.95;;;1.48;;
30173;SDS011;16985;50.814;8.530;2022-07-06T03:17:17;3.78;;;1.70;;
30173;SDS011;16985;50.814;8.530;2022-07-06T03:19:44;2.93;;;1.80;;
30173;SDS011;16985;50.814;8.530;2022-07-06T03:22:10;4.07;;;1.80;;
30173;SDS011;16985;50.814;8.530;2022-07-06T03:24:36;4.55;;;1.70;;
30173;SDS011;16985;50.814;8.530;2022-07-06T03:27:03;3.28;;;1.17;;
30173;SDS011;16985;50.814;8.530;2022-07-06T03:29:29;4.18;;;1.67;;
30173;SDS011;16985;50.814;8.530;2022-07-06T03:31:55;4.53;;;1.60;;
30173;SDS011;16985;50.814;8.530;2022-07-06T03:34:22;5.88;;;1.63;;
30173;SDS011;16985;50.814;8.530;2022-07-06T03:36:48;3.47;;;1.33;;
30173;SDS011;16985;50.814;8.530;2022-07-06T03:39:14;3.65;;;1.40;;
30173;SDS011;16985;50.814;8.530;2022-07-06T03:41:41;3.67;;;1.65;;
30173;SDS011;16985;50.814;8.530;2022-07-06T03:44:08;4.07;;;1.55;;
30173;SDS011;16985;50.814;8.530;2022-07-06T03:46:34;2.58;;;1.35;;
30173;SDS011;16985;50.814;8.530;2022-07-06T03:49:00;3.08;;;1.70;;
30173;SDS011;16985;50.814;8.530;2022-07-06T03:51:27;5.47;;;1.80;;
30173;SDS011;16985;50.814;8.530;2022-07-06T03:53:52;3.38;;;1.45;;
30173;SDS011;16985;50.814;8.530;2022-07-06T03:56:18;3.25;;;1.80;;
30173;SDS011;16985;50.814;8.530;2022-07-06T03:58:54;3.58;;;1.58;;
30173;SDS011;16985;50.814;8.530;2022-07-06T04:01:27;3.35;;;2.00;;
30173;SDS011;16985;50.814;8.530;2022-07-06T04:03:55;2.33;;;1.77;;
30173;SDS011;16985;50.814;8.530;2022-07-06T04:06:22;2.72;;;1.50;;
30173;SDS011;16985;50.814;8.530;2022-07-06T04:08:48;3.42;;;1.65;;
30173;SDS011;16985;50.814;8.530;2022-07-06T04:11:14;3.88;;;1.40;;
30173;SDS011;16985;50.814;8.530;2022-07-06T04:13:40;2.13;;;1.58;;
30173;SDS011;16985;50.814;8.530;2022-07-06T04:16:07;3.75;;;1.67;;
30173;SDS011;16985;50.814;8.530;2022-07-06T04:18:33;8.18;;;1.95;;
30173;SDS011;16985;50.814;8.530;2022-07-06T04:21:00;4.13;;;1.80;;
30173;SDS011;16985;50.814;8.530;2022-07-06T04:23:29;3.35;;;1.70;;
30173;SDS011;16985;50.814;8.530;2022-07-06T04:25:55;2.47;;;1.45;;
30173;SDS011;16985;50.814;8.530;2022-07-06T04:28:23;2.17;;;1.10;;
30173;SDS011;16985;50.814;8.530;2022-07-06T04:30:49;6.30;;;1.58;;
30173;SDS011;16985;50.814;8.530;2022-07-06T04:33:19;3.53;;;1.23;;
30173;SDS011;16985;50.814;8.530;2022-07-06T04:35:47;5.10;;;1.73;;
30173;SDS011;16985;50.814;8.530;2022-07-06T04:38:13;3.35;;;1.75;;
30173;SDS011;16985;50.814;8.530;2022-07-06T04:40:40;3.28;;;1.48;;
30173;SDS011;16985;50.814;8.530;2022-07-06T04:43:09;3.47;;;1.65;;
30173;SDS011;16985;50.814;8.530;2022-07-06T04:45:36;4.25;;;1.42;;
30173;SDS011;16985;50.814;8.530;2022-07-06T04:48:03;2.65;;;1.50;;
30173;SDS011;16985;50.814;8.530;2022-07-06T04:50:29;3.13;;;1.50;;
30173;SDS011;16985;50.814;8.530;2022-07-06T04:52:59;2.97;;;1.50;;
30173;SDS011;16985;50.814;8.530;2022-07-06T04:55:25;2.40;;;1.55;;
30173;SDS011;16985;50.814;8.530;2022-07-06T04:57:51;7.13;;;1.48;;
30173;SDS011;16985;50.814;8.530;2022-07-06T05:00:18;5.93;;;1.70;;
30173;SDS011;16985;50.814;8.530;2022-07-06T05:02:46;3.63;;;1.70;;
30173;SDS011;16985;50.814;8.530;2022-07-06T05:05:12;4.38;;;1.70;;
30173;SDS011;16985;50.814;8.530;2022-07-06T05:07:38;2.17;;;1.40;;
30173;SDS011;16985;50.814;8.530;2022-07-06T05:10:08;5.03;;;1.80;;
30173;SDS011;16985;50.814;8.530;2022-07-06T05:12:37;4.72;;;1.88;;
30173;SDS011;16985;50.814;8.530;2022-07-06T05:15:04;4.32;;;1.85;;
30173;SDS011;16985;50.814;8.530;2022-07-06T05:17:31;4.38;;;2.10;;
30173;SDS011;16985;50.814;8.530;2022-07-06T05:19:59;6.13;;;2.50;;
30173;SDS011;16985;50.814;8.530;2022-07-06T05:22:25;6.68;;;2.78;;
30173;SDS011;16985;50.814;8.530;2022-07-06T05:24:52;4.22;;;1.98;;
30173;SDS011;16985;50.814;8.530;2022-07-06T05:27:19;8.68;;;2.30;;
30173;SDS011;16985;50.814;8.530;2022-07-06T05:29:46;5.65;;;2.30;;
30173;SDS011;16985;50.814;8.530;2022-07-06T05:32:12;5.72;;;2.50;;
30173;SDS011;16985;50.814;8.530;2022-07-06T05:34:38;3.22;;;2.38;;
30173;SDS011;16985;50.814;8.530;2022-07-06T05:37:05;6.45;;;2.70;;
30173;SDS011;16985;50.814;8.530;2022-07-06T05:39:32;4.65;;;2.25;;
30173;SDS011;16985;50.814;8.530;2022-07-06T05:41:58;4.45;;;2.47;;
30173;SDS011;16985;50.814;8.530;2022-07-06T05:44:23;4.95;;;2.67;;
30173;SDS011;16985;50.814;8.530;2022-07-06T05:46:49;4.10;;;3.35;;
30173;SDS011;16985;50.814;8.530;2022-07-06T05:49:16;6.35;;;2.80;;
30173;SDS011;16985;50.814;8.530;2022-07-06T05:52:00;6.10;;;2.80;;
30173;SDS011;16985;50.814;8.530;2022-07-06T05:54:27;5.43;;;3.00;;
30173;SDS011;16985;50.814;8.530;2022-07-06T05:56:53;5.82;;;2.63;;
30173;SDS011;16985;50.814;8.530;2022-07-06T05:59:19;4.10;;;2.88;;
30173;SDS011;16985;50.814;8.530;2022-07-06T06:01:45;4.93;;;3.22;;
30173;SDS011;16985;50.814;8.530;2022-07-06T06:04:16;7.93;;;3.38;;
30173;SDS011;16985;50.814;8.530;2022-07-06T06:06:42;5.93;;;2.75;;
30173;SDS011;16985;50.814;8.530;2022-07-06T06:09:08;2.78;;;2.40;;
30173;SDS011;16985;50.814;8.530;2022-07-06T06:11:34;5.70;;;2.88;;
30173;SDS011;16985;50.814;8.530;2022-07-06T06:14:00;5.38;;;3.08;;
30173;SDS011;16985;50.814;8.530;2022-07-06T06:16:26;5.78;;;3.50;;
30173;SDS011;16985;50.814;8.530;2022-07-06T06:18:52;5.40;;;3.03;;
30173;SDS011;16985;50.814;8.530;2022-07-06T06:21:18;3.35;;;2.75;;
30173;SDS011;16985;50.814;8.530;2022-07-06T06:23:44;3.97;;;2.80;;
30173;SDS011;16985;50.814;8.530;2022-07-06T06:26:10;4.43;;;2.63;;
30173;SDS011;16985;50.814;8.530;2022-07-06T06:28:36;7.15;;;3.35;;
30173;SDS011;16985;50.814;8.530;2022-07-06T06:31:02;3.75;;;2.55;;
30173;SDS011;16985;50.814;8.530;2022-07-06T06:33:27;3.63;;;2.60;;
30173;SDS011;16985;50.814;8.530;2022-07-06T06:35:53;8.85;;;3.33;;
30173;SDS011;16985;50.814;8.530;2022-07-06T06:38:20;5.70;;;3.05;;
30173;SDS011;16985;50.814;8.530;2022-07-06T06:40:47;3.45;;;2.78;;
30173;SDS011;16985;50.814;8.530;2022-07-06T06:43:13;5.68;;;2.50;;
30173;SDS011;16985;50.814;8.530;2022-07-06T06:45:58;7.50;;;2.50;;
30173;SDS011;16985;50.814;8.530;2022-07-06T06:48:24;5.28;;;3.30;;
30173;SDS011;16985;50.814;8.530;2022-07-06T06:50:50;3.95;;;2.95;;
30173;SDS011;16985;50.814;8.530;2022-07-06T06:53:16;4.45;;;2.60;;
30173;SDS011;16985;50.814;8.530;2022-07-06T06:55:42;6.57;;;2.22;;
30173;SDS011;16985;50.814;8.530;2022-07-06T06:58:08;6.13;;;2.97;;
30173;SDS011;16985;50.814;8.530;2022-07-06T07:00:34;7.00;;;2.20;;
30173;SDS011;16985;50.814;8.530;2022-07-06T07:03:00;5.90;;;2.50;;
30173;SDS011;16985;50.814;8.530;2022-07-06T07:05:26;2.22;;;1.77;;
30173;SDS011;16985;50.814;8.530;2022-07-06T07:07:52;3.80;;;2.10;;
30173;SDS011;16985;50.814;8.530;2022-07-06T07:10:19;3.95;;;2.38;;
30173;SDS011;16985;50.814;8.530;2022-07-06T07:12:46;5.18;;;1.90;;
30173;SDS011;16985;50.814;8.530;2022-07-06T07:15:13;5.82;;;1.75;;
30173;SDS011;16985;50.814;8.530;2022-07-06T07:17:39;4.50;;;1.60;;
30173;SDS011;16985;50.814;8.530;2022-07-06T07:20:05;2.08;;;1.45;;
30173;SDS011;16985;50.814;8.530;2022-07-06T07:22:32;2.15;;;1.48;;
30173;SDS011;16985;50.814;8.530;2022-07-06T07:24:58;3.33;;;1.65;;
30173;SDS011;16985;50.814;8.530;2022-07-06T07:27:24;3.45;;;1.70;;
30173;SDS011;16985;50.814;8.530;2022-07-06T07:29:50;3.75;;;1.45;;
30173;SDS011;16985;50.814;8.530;2022-07-06T07:32:16;4.88;;;1.90;;
30173;SDS011;16985;50.814;8.530;2022-07-06T07:34:42;5.38;;;1.63;;
30173;SDS011;16985;50.814;8.530;2022-07-06T07:37:08;4.68;;;1.50;;
30173;SDS011;16985;50.814;8.530;2022-07-06T07:39:35;3.67;;;1.45;;
30173;SDS011;16985;50.814;8.530;2022-07-06T07:42:00;1.90;;;1.58;;
30173;SDS011;16985;50.814;8.530;2022-07-06T07:44:26;2.17;;;1.40;;
30173;SDS011;16985;50.814;8.530;2022-07-06T07:46:52;3.28;;;1.75;;
30173;SDS011;16985;50.814;8.530;2022-07-06T07:49:18;4.03;;;1.40;;
30173;SDS011;16985;50.814;8.530;2022-07-06T07:51:46;2.75;;;1.23;;
30173;SDS011;16985;50.814;8.530;2022-07-06T07:54:14;6.03;;;1.63;;
30173;SDS011;16985;50.814;8.530;2022-07-06T07:56:40;2.00;;;1.30;;
30173;SDS011;16985;50.814;8.530;2022-07-06T07:59:06;2.63;;;1.33;;
30173;SDS011;16985;50.814;8.530;2022-07-06T08:01:34;13.18;;;2.60;;
30173;SDS011;16985;50.814;8.530;2022-07-06T08:03:59;4.63;;;1.58;;
30173;SDS011;16985;50.814;8.530;2022-07-06T08:06:25;3.05;;;1.85;;
30173;SDS011;16985;50.814;8.530;2022-07-06T08:08:51;7.57;;;2.15;;
30173;SDS011;16985;50.814;8.530;2022-07-06T08:11:17;8.93;;;1.35;;
30173;SDS011;16985;50.814;8.530;2022-07-06T08:13:43;3.10;;;1.42;;
30173;SDS011;16985;50.814;8.530;2022-07-06T08:16:08;2.53;;;1.27;;
30173;SDS011;16985;50.814;8.530;2022-07-06T08:18:35;3.70;;;1.63;;
30173;SDS011;16985;50.814;8.530;2022-07-06T08:21:01;1.65;;;1.20;;
30173;SDS011;16985;50.814;8.530;2022-07-06T08:23:28;4.47;;;1.33;;
30173;SDS011;16985;50.814;8.530;2022-07-06T08:25:53;1.88;;;1.00;;
30173;SDS011;16985;50.814;8.530;2022-07-06T08:28:19;2.35;;;1.10;;
30173;SDS011;16985;50.814;8.530;2022-07-06T08:30:45;6.45;;;1.30;;
30173;SDS011;16985;50.814;8.530;2022-07-06T08:33:12;3.58;;;1.48;;
30173;SDS011;16985;50.814;8.530;2022-07-06T08:35:39;1.80;;;1.20;;
30173;SDS011;16985;50.814;8.530;2022-07-06T08:38:04;3.65;;;1.40;;
30173;SDS011;16985;50.814;8.530;2022-07-06T08:40:32;5.97;;;1.20;;
30173;SDS011;16985;50.814;8.530;2022-07-06T08:43:02;2.17;;;1.00;;
30173;SDS011;16985;50.814;8.530;2022-07-06T08:45:29;4.53;;;1.00;;
30173;SDS011;16985;50.814;8.530;2022-07-06T08:47:56;8.13;;;2.03;;
30173;SDS011;16985;50.814;8.530;2022-07-06T08:50:29;2.53;;;1.05;;
30173;SDS011;16985;50.814;8.530;2022-07-06T08:52:55;4.28;;;1.77;;
30173;SDS011;16985;50.814;8.530;2022-07-06T08:55:21;2.38;;;1.00;;
30173;SDS011;16985;50.814;8.530;2022-07-06T08:57:47;1.85;;;1.45;;
30173;SDS011;16985;50.814;8.530;2022-07-06T09:00:13;4.70;;;1.13;;
30173;SDS011;16985;50.814;8.530;2022-07-06T09:02:40;3.83;;;1.38;;
30173;SDS011;16985;50.814;8.530;2022-07-06T09:05:06;1.30;;;0.80;;
30173;SDS011;16985;50.814;8.530;2022-07-06T09:07:34;4.25;;;1.27;;
30173;SDS011;16985;50.814;8.530;2022-07-06T09:10:00;2.22;;;1.15;;
30173;SDS011;16985;50.814;8.530;2022-07-06T09:12:28;1.50;;;0.90;;
30173;SDS011;16985;50.814;8.530;2022-07-06T09:14:57;3.08;;;1.00;;
30173;SDS011;16985;50.814;8.530;2022-07-06T09:17:27;1.38;;;1.05;;
30173;SDS011;16985;50.814;8.530;2022-07-06T09:19:54;4.13;;;1.00;;
30173;SDS011;16985;50.814;8.530;2022-07-06T09:22:25;3.53;;;0.88;;
30173;SDS011;16985;50.814;8.530;2022-07-06T09:24:52;4.35;;;0.93;;
30173;SDS011;16985;50.814;8.530;2022-07-06T09:27:18;2.33;;;0.82;;
30173;SDS011;16985;50.814;8.530;2022-07-06T09:29:44;2.35;;;1.25;;
30173;SDS011;16985;50.814;8.530;2022-07-06T09:32:10;3.42;;;1.98;;
30173;SDS011;16985;50.814;8.530;2022-07-06T09:34:40;6.72;;;2.35;;
30173;SDS011;16985;50.814;8.530;2022-07-06T09:37:11;2.75;;;1.80;;
30173;SDS011;16985;50.814;8.530;2022-07-06T09:39:44;2.42;;;1.27;;
30173;SDS011;16985;50.814;8.530;2022-07-06T09:42:10;3.78;;;1.73;;
30173;SDS011;16985;50.814;8.530;2022-07-06T09:44:37;3.13;;;1.50;;
30173;SDS011;16985;50.814;8.530;2022-07-06T09:47:05;2.90;;;1.30;;
30173;SDS011;16985;50.814;8.530;2022-07-06T09:49:34;4.28;;;1.20;;
30173;SDS011;16985;50.814;8.530;2022-07-06T09:52:05;5.30;;;1.13;;
30173;SDS011;16985;50.814;8.530;2022-07-06T09:54:34;2.20;;;1.00;;
30173;SDS011;16985;50.814;8.530;2022-07-06T09:57:01;3.40;;;0.98;;
30173;SDS011;16985;50.814;8.530;2022-07-06T09:59:28;0.95;;;0.70;;
30173;SDS011;16985;50.814;8.530;2022-07-06T10:01:56;3.97;;;1.27;;
30173;SDS011;16985;50.814;8.530;2022-07-06T10:04:28;1.95;;;0.80;;
30173;SDS011;16985;50.814;8.530;2022-07-06T10:06:55;3.70;;;1.13;;
30173;SDS011;16985;50.814;8.530;2022-07-06T10:09:22;1.02;;;0.77;;
30173;SDS011;16985;50.814;8.530;2022-07-06T10:11:52;1.55;;;1.05;;
30173;SDS011;16985;50.814;8.530;2022-07-06T10:14:25;3.42;;;1.38;;
30173;SDS011;16985;50.814;8.530;2022-07-06T10:16:54;0.85;;;0.80;;
30173;SDS011;16985;50.814;8.530;2022-07-06T10:19:25;3.80;;;1.00;;
30173;SDS011;16985;50.814;8.530;2022-07-06T10:21:53;1.17;;;0.70;;
30173;SDS011;16985;50.814;8.530;2022-07-06T10:24:21;3.65;;;1.23;;
30173;SDS011;16985;50.814;8.530;2022-07-06T10:26:47;2.78;;;1.10;;
30173;SDS011;16985;50.814;8.530;2022-07-06T10:29:13;1.90;;;0.90;;
30173;SDS011;16985;50.814;8.530;2022-07-06T10:31:40;2.42;;;0.85;;
30173;SDS011;16985;50.814;8.530;2022-07-06T10:34:12;0.93;;;0.60;;
30173;SDS011;16985;50.814;8.530;2022-07-06T10:36:41;1.00;;;0.70;;
30173;SDS011;16985;50.814;8.530;2022-07-06T10:39:10;2.47;;;0.80;;
30173;SDS011;16985;50.814;8.530;2022-07-06T10:41:59;3.85;;;1.10;;
30173;SDS011;16985;50.814;8.530;2022-07-06T10:44:26;0.80;;;0.80;;
30173;SDS011;16985;50.814;8.530;2022-07-06T10:46:59;3.17;;;1.03;;
30173;SDS011;16985;50.814;8.530;2022-07-06T10:49:25;2.03;;;0.85;;
30173;SDS011;16985;50.814;8.530;2022-07-06T10:51:52;2.55;;;0.90;;
30173;SDS011;16985;50.814;8.530;2022-07-06T10:54:19;2.20;;;0.80;;
30173;SDS011;16985;50.814;8.530;2022-07-06T10:56:49;0.77;;;0.77;;
30173;SDS011;16985;50.814;8.530;2022-07-06T11:04:47;2.35;;;0.98;;
30173;SDS011;16985;50.814;8.530;2022-07-06T11:07:14;3.50;;;0.80;;
30173;SDS011;16985;50.814;8.530;2022-07-06T11:09:55;2.17;;;0.98;;
30173;SDS011;16985;50.814;8.530;2022-07-06T11:12:23;3.15;;;0.80;;
30173;SDS011;16985;50.814;8.530;2022-07-06T11:14:49;2.22;;;0.93;;
30173;SDS011;16985;50.814;8.530;2022-07-06T11:17:20;6.30;;;1.25;;
30173;SDS011;16985;50.814;8.530;2022-07-06T11:19:49;3.05;;;1.33;;
30173;SDS011;16985;50.814;8.530;2022-07-06T11:22:20;1.58;;;0.98;;
30173;SDS011;16985;50.814;8.530;2022-07-06T11:24:49;2.67;;;1.10;;
30173;SDS011;16985;50.814;8.530;2022-07-06T11:27:17;3.72;;;1.17;;
30173;SDS011;16985;50.814;8.530;2022-07-06T11:29:47;1.77;;;0.93;;
30173;SDS011;16985;50.814;8.530;2022-07-06T11:32:13;2.45;;;0.88;;
30173;SDS011;16985;50.814;8.530;2022-07-06T11:34:43;1.92;;;0.70;;
30173;SDS011;16985;50.814;8.530;2022-07-06T11:37:11;3.17;;;0.93;;
30173;SDS011;16985;50.814;8.530;2022-07-06T11:39:39;3.35;;;0.90;;
30173;SDS011;16985;50.814;8.530;2022-07-06T11:42:11;3.10;;;0.98;;
30173;SDS011;16985;50.814;8.530;2022-07-06T11:44:42;3.85;;;0.90;;
30173;SDS011;16985;50.814;8.530;2022-07-06T11:47:09;2.00;;;1.05;;
30173;SDS011;16985;50.814;8.530;2022-07-06T11:49:36;2.30;;;0.77;;
30173;SDS011;16985;50.814;8.530;2022-07-06T11:52:06;1.13;;;0.70;;
30173;SDS011;16985;50.814;8.530;2022-07-06T11:54:37;2.75;;;0.70;;
30173;SDS011;16985;50.814;8.530;2022-07-06T11:57:04;3.27;;;0.80;;
30173;SDS011;16985;50.814;8.530;2022-07-06T11:59:35;2.72;;;0.98;;
30173;SDS011;16985;50.814;8.530;2022-07-06T12:04:32;0.98;;;0.82;;
30173;SDS011;16985;50.814;8.530;2022-07-06T12:07:03;3.05;;;1.00;;
30173;SDS011;16985;50.814;8.530;2022-07-06T12:09:33;1.75;;;0.80;;
30173;SDS011;16985;50.814;8.530;2022-07-06T12:12:00;5.97;;;0.98;;
30173;SDS011;16985;50.814;8.530;2022-07-06T12:14:28;1.95;;;0.73;;
30173;SDS011;16985;50.814;8.530;2022-07-06T12:16:55;4.07;;;1.08;;
30173;SDS011;16985;50.814;8.530;2022-07-06T12:19:22;1.95;;;0.98;;
30173;SDS011;16985;50.814;8.530;2022-07-06T12:21:51;2.55;;;0.80;;
30173;SDS011;16985;50.814;8.530;2022-07-06T12:24:25;2.15;;;0.85;;
30173;SDS011;16985;50.814;8.530;2022-07-06T12:26:53;2.30;;;0.80;;
30173;SDS011;16985;50.814;8.530;2022-07-06T12:29:20;2.97;;;0.93;;
30173;SDS011;16985;50.814;8.530;2022-07-06T12:36:49;6.05;;;1.05;;
30173;SDS011;16985;50.814;8.530;2022-07-06T12:39:21;3.50;;;1.15;;
30173;SDS011;16985;50.814;8.530;2022-07-06T12:41:58;1.88;;;0.80;;
30173;SDS011;16985;50.814;8.530;2022-07-06T12:44:28;3.30;;;0.73;;
30173;SDS011;16985;50.814;8.530;2022-07-06T12:47:07;2.70;;;0.82;;
30173;SDS011;16985;50.814;8.530;2022-07-06T12:49:38;3.38;;;0.90;;
30173;SDS011;16985;50.814;8.530;2022-07-06T12:52:11;3.67;;;0.88;;
30173;SDS011;16985;50.814;8.530;2022-07-06T12:54:43;3.20;;;1.00;;
30173;SDS011;16985;50.814;8.530;2022-07-06T12:57:17;1.60;;;0.88;;
30173;SDS011;16985;50.814;8.530;2022-07-06T13:00:02;2.38;;;0.75;;
30173;SDS011;16985;50.814;8.530;2022-07-06T13:02:31;1.90;;;0.80;;
30173;SDS011;16985;50.814;8.530;2022-07-06T13:05:01;1.25;;;0.75;;
30173;SDS011;16985;50.814;8.530;2022-07-06T13:07:32;3.30;;;1.20;;
30173;SDS011;16985;50.814;8.530;2022-07-06T13:10:04;2.50;;;0.80;;
30173;SDS011;16985;50.814;8.530;2022-07-06T13:12:41;5.45;;;1.02;;
30173;SDS011;16985;50.814;8.530;2022-07-06T13:15:08;2.40;;;0.85;;
30173;SDS011;16985;50.814;8.530;2022-07-06T13:17:51;2.67;;;0.85;;
30173;SDS011;16985;50.814;8.530;2022-07-06T13:20:17;2.67;;;0.90;;
30173;SDS011;16985;50.814;8.530;2022-07-06T13:22:44;2.35;;;0.73;;
30173;SDS011;16985;50.814;8.530;2022-07-06T13:25:11;3.25;;;1.20;;
30173;SDS011;16985;50.814;8.530;2022-07-06T13:27:37;1.90;;;0.70;;
30173;SDS011;16985;50.814;8.530;2022-07-06T13:30:03;2.40;;;1.20;;
30173;SDS011;16985;50.814;8.530;2022-07-06T13:32:30;1.20;;;0.88;;
30173;SDS011;16985;50.814;8.530;2022-07-06T13:34:56;3.05;;;1.30;;
30173;SDS011;16985;50.814;8.530;2022-07-06T13:37:24;1.85;;;0.85;;
30173;SDS011;16985;50.814;8.530;2022-07-06T13:39:50;3.78;;;1.23;;
30173;SDS011;16985;50.814;8.530;2022-07-06T13:42:16;8.73;;;1.05;;
30173;SDS011;16985;50.814;8.530;2022-07-06T13:44:41;3.03;;;0.90;;
30173;SDS011;16985;50.814;8.530;2022-07-06T13:47:07;3.85;;;1.10;;
30173;SDS011;16985;50.814;8.530;2022-07-06T13:49:33;4.32;;;1.00;;
30173;SDS011;16985;50.814;8.530;2022-07-06T13:51:59;1.90;;;1.00;;
30173;SDS011;16985;50.814;8.530;2022-07-06T13:54:28;1.63;;;0.77;;
30173;SDS011;16985;50.814;8.530;2022-07-06T14:02:01;1.52;;;0.90;;
30173;SDS011;16985;50.814;8.530;2022-07-06T14:04:27;1.60;;;0.90;;
30173;SDS011;16985;50.814;8.530;2022-07-06T14:06:53;1.63;;;0.95;;
30173;SDS011;16985;50.814;8.530;2022-07-06T14:09:18;2.60;;;0.90;;
30173;SDS011;16985;50.814;8.530;2022-07-06T14:11:44;1.30;;;0.80;;
30173;SDS011;16985;50.814;8.530;2022-07-06T14:14:10;2.45;;;0.70;;
30173;SDS011;16985;50.814;8.530;2022-07-06T14:16:36;5.00;;;1.17;;
30173;SDS011;16985;50.814;8.530;2022-07-06T14:19:02;5.13;;;1.13;;
30173;SDS011;16985;50.814;8.530;2022-07-06T14:21:28;4.78;;;1.10;;
30173;SDS011;16985;50.814;8.530;2022-07-06T14:23:54;1.10;;;0.63;;
30173;SDS011;16985;50.814;8.530;2022-07-06T14:26:19;3.85;;;1.10;;
30173;SDS011;16985;50.814;8.530;2022-07-06T14:29:02;6.13;;;1.10;;
30173;SDS011;16985;50.814;8.530;2022-07-06T14:31:28;3.75;;;1.17;;
30173;SDS011;16985;50.814;8.530;2022-07-06T14:33:54;4.07;;;0.88;;
30173;SDS011;16985;50.814;8.530;2022-07-06T14:36:22;5.13;;;0.90;;
30173;SDS011;16985;50.814;8.530;2022-07-06T14:38:48;9.30;;;0.85;;
30173;SDS011;16985;50.814;8.530;2022-07-06T14:41:28;3.13;;;0.90;;
30173;SDS011;16985;50.814;8.530;2022-07-06T14:43:54;2.88;;;1.02;;
30173;SDS011;16985;50.814;8.530;2022-07-06T14:46:20;3.63;;;1.15;;
30173;SDS011;16985;50.814;8.530;2022-07-06T14:48:46;4.93;;;0.77;;
30173;SDS011;16985;50.814;8.530;2022-07-06T14:51:12;1.00;;;0.65;;
30173;SDS011;16985;50.814;8.530;2022-07-06T14:53:38;1.73;;;0.82;;
30173;SDS011;16985;50.814;8.530;2022-07-06T14:56:04;2.15;;;0.80;;
30173;SDS011;16985;50.814;8.530;2022-07-06T14:58:30;4.07;;;0.82;;
30173;SDS011;16985;50.814;8.530;2022-07-06T15:00:56;4.28;;;1.08;;
30173;SDS011;16985;50.814;8.530;2022-07-06T15:03:24;2.35;;;1.10;;
30173;SDS011;16985;50.814;8.530;2022-07-06T15:05:51;1.55;;;0.85;;
30173;SDS011;16985;50.814;8.530;2022-07-06T15:08:19;2.22;;;1.17;;
30173;SDS011;16985;50.814;8.530;2022-07-06T15:10:45;4.65;;;1.05;;